Terminal Aerodrome Forecast
Issued by NWS Caribou, ME

Home | Current Version | Previous Version | Text Only | Print | Product List | Glossary On
Versions: 1 2 3 4 5 6 7 8 9 10 11 12 13 14 15 16
670
FTUS41 KCAR 291242 AAA
TAFBGR
TAF AMD
KBGR 291242Z 2913/3012 VRB03KT P6SM FEW005 BKN020
     FM291400 VRB03KT P6SM SCT035 BKN100=

USA.gov is the U.S. government's official web portal to all federal, state and local government web resources and services.